Flight Track Log - Related Links

Times and Time Zones

All times are in EDT time to prevent confusion due to time zone crossing. See the N45BB flight status page for this flight to view local times or setup timezone preferences in your user account.

Time Position Orientation Groundspeed Altitude Reporting Facility
EDT Latitude Longitude Course Direction KTS MPH feet Rate Location/Type
Tue 03:07:10 PM 40.2833 -85.4500 319° Northwest 125 144 2,900  Level Indianapolis TRACON
Tue 03:07:44 PM 40.2983 -85.4672 319° Northwest 153 176 3,300 688 Climbing Indianapolis Center
Tue 03:08:46 PM 40.3283 -85.5022 318° Northwest 147 169 4,000 968 Climbing Indianapolis Center
Tue 03:09:48 PM 40.3686 -85.5367 327° Northwest 146 168 5,300 1,059 Climbing Indianapolis Center
Tue 03:10:45 PM 40.3950 -85.5589 327° Northwest 144 166 6,100 1,160 Climbing Chicago Center
Tue 03:11:47 PM 40.4281 -85.6081 311° West 151 174 7,600 1,258 Climbing Chicago Center
Tue 03:12:49 PM 40.4539 -85.6472 311° West 147 169 8,700 1,113 Climbing Chicago Center
Tue 03:13:51 PM 40.4714 -85.6939 296° West 145 167 9,900 1,113 Climbing Chicago Center
Tue 03:14:53 PM 40.4903 -85.7406 298° West 145 167 11,000 919 Climbing Chicago Center
Tue 03:15:55 PM 40.5078 -85.7883 296° West 145 167 11,800 480 Climbing Chicago Center
Tue 03:16:58 PM 40.5297 -85.8425 298° West 165 190 12,000 48 Climbing Chicago Center
Tue 03:18:00 PM 40.5606 -85.9225 297° West 204 235 11,900  Descending Chicago Center
Tue 03:19:02 PM 40.5861 -85.9883 297° West 203 234 12,000  Climbing Chicago Center
Tue 03:20:04 PM 40.6106 -86.0503 297° West 194 223 11,900 -48 Descending Chicago Center
Tue 03:21:06 PM 40.6342 -86.1128 296° West 193 222 11,900  Level Chicago Center
Tue 03:22:08 PM 40.6583 -86.1733 298° West 189 217 11,900  Level Chicago Center
Tue 03:23:10 PM 40.6872 -86.2497 297° West 193 222 11,900  Level Chicago Center
Tue 03:24:12 PM 40.7081 -86.3031 297° West 189 217 11,900 48 Level Chicago Center
Tue 03:25:14 PM 40.7378 -86.3778 298° West 191 220 12,000  Climbing Chicago Center
Tue 03:26:16 PM 40.7617 -86.4406 297° West 191 220 11,900 -48 Descending Chicago Center
Tue 03:27:18 PM 40.7853 -86.5017 297° West 187 215 11,900  Level Chicago Center
Tue 03:28:21 PM 40.8089 -86.5642 297° West 189 217 11,900  Level Chicago Center
Tue 03:29:23 PM 40.8331 -86.6272 297° West 191 220 11,900  Level Chicago Center
Tue 03:30:25 PM 40.8581 -86.6878 299° West 189 217 11,900  Level Chicago Center
Tue 03:31:27 PM 40.8872 -86.7622 297° West 189 217 11,900  Level Chicago Center
Tue 03:32:29 PM 40.9108 -86.8231 297° West 187 215 11,900  Level Chicago Center
Tue 03:33:31 PM 40.9331 -86.8853 295° West 188 216 11,900  Level Chicago Center
Tue 03:34:33 PM 40.9558 -86.9483 296° West 189 217 11,900  Level Chicago Center
Tue 03:35:35 PM 40.9781 -87.0075 296° West 181 208 11,900  Level Chicago Center
Tue 03:36:37 PM 41.0069 -87.0806 298° West 186 214 11,900 -290 Level Chicago Center
Tue 03:37:39 PM 41.0311 -87.1456 296° West 197 227 11,300 -432 Descending Chicago Center
Tue 03:38:42 PM 41.0589 -87.2081 301° West 197 227 11,000 -384 Descending Chicago Center
Tue 03:39:44 PM 41.0864 -87.2711 300° West 198 228 10,500 -339 Descending Chicago Center
Tue 03:40:46 PM 41.1133 -87.3325 300° West 195 224 10,300 -290 Descending Chicago Center
Tue 03:41:48 PM 41.1483 -87.4042 303° West 193 222 9,900 -532 Descending Chicago Center
Tue 03:42:50 PM 41.1717 -87.4694 295° West 195 224 9,200 -823 Descending Chicago Center
Tue 03:43:52 PM 41.1953 -87.5419 293° West 209 241 8,200 -726 Descending Chicago Center
Tue 03:44:54 PM 41.2222 -87.6075 299° West 206 237 7,700 -528 Descending Chicago Center
Tue 03:45:57 PM 41.2547 -87.6647 307° West 197 227 7,100 -720 Descending Chicago Center
Tue 03:46:59 PM 41.2869 -87.7419 299° West 198 228 6,200 -823 Descending Chicago Center
Tue 03:48:01 PM 41.3158 -87.8064 301° West 201 231 5,400 -726 Descending Chicago Center
Tue 03:49:03 PM 41.3447 -87.8697 301° West 202 232 4,700 -581 Descending Chicago Center
Tue 03:50:05 PM 41.3736 -87.9311 302° West 200 230 4,200 -387 Descending Chicago Center
Tue 03:51:07 PM 41.4014 -87.9906 302° West 196 226 3,900 -145 Descending Chicago Center
Tue 03:52:09 PM 41.4308 -88.0531 302° West 185 213 3,900 48 Level Chicago Center
Tue 03:53:11 PM 41.4531 -88.1033 301° West 175 201 4,000  Climbing Chicago Center
Tue 03:54:13 PM 41.4992 -88.1242 341° North 182 209 3,900 -48 Descending Chicago Center
Tue 03:55:15 PM 41.5569 -88.1400 348° North 180 207 3,900  Level Chicago Center
Tue 03:56:17 PM 41.6044 -88.1567 345° North 179 206 3,900  Level Chicago Center
Tue 03:57:19 PM 41.6525 -88.1714 347° North 177 204 3,900 -192 Level Chicago Center
Tue 03:58:22 PM 41.7028 -88.1864 347° North 180 207 3,500 -480 Descending Chicago Center
Tue 03:59:24 PM 41.7581 -88.2028 348° North 193 222 2,900 -435 Descending Chicago Center
Tue 04:00:26 PM 41.8094 -88.2175 348° North 194 223 2,600 -290 Descending Chicago Center
Tue 04:01:28 PM 41.8694 -88.2086 North 187 215 2,300 -194 Descending Chicago Center
Tue 04:02:30 PM 41.9186 -88.1947 12° North 185 213 2,200 -339 Descending Chicago Center
Tue 04:03:32 PM 41.9369 -88.2244 310° West 165 190 1,600 871 Descending Chicago Center
Tue 04:04:34 PM 41.9211 -88.2650 242° Southwest 155 178 4,000 2,323 Climbing Chicago Center

Login

Don't have an account? Register now (free) for customized features, flight alerts, and more!